Time;durP1;ratioP1;P1;durP2;ratioP2;P2;SDS_P1;SDS_P2;PMS_P1;PMS_P2;Temp;Humidity;BMP_temperature;BMP_pressure;BME280_temperature;BME280_humidity;BME280_pressure;Samples;Min_cycle;Max_cycle;Signal;HPM_P1;HPM_P2
2022/06/15 00:00:33;;;;;;;9.38;6.90;;;;;;;;;;4990841;28;20022;-71
2022/06/15 00:02:59;;;;;;;8.95;7.30;;;;;;;;;;4991223;28;20034;-70
2022/06/15 00:05:24;;;;;;;8.13;6.97;;;;;;;;;;4990735;28;20105;-70
2022/06/15 00:07:49;;;;;;;6.97;6.30;;;;;;;;;;4990838;28;20484;-70
2022/06/15 00:10:14;;;;;;;7.35;6.55;;;;;;;;;;4988120;28;20498;-70
2022/06/15 00:12:40;;;;;;;6.60;6.00;;;;;;;;;;4984345;28;20108;-70
2022/06/15 00:15:06;;;;;;;7.35;6.35;;;;;;;;;;4987767;28;20026;-71
2022/06/15 00:17:31;;;;;;;7.50;6.72;;;;;;;;;;4992420;28;20027;-70
2022/06/15 00:19:56;;;;;;;11.43;6.78;;;;;;;;;;4989383;28;20034;-71
2022/06/15 00:22:22;;;;;;;10.02;6.97;;;;;;;;;;4983645;28;20030;-72
2022/06/15 00:24:47;;;;;;;8.63;7.25;;;;;;;;;;4987488;28;20026;-70
2022/06/15 00:27:13;;;;;;;10.50;7.28;;;;;;;;;;4990242;28;20024;-70
2022/06/15 00:29:38;;;;;;;9.75;7.57;;;;;;;;;;4986719;28;20030;-71
2022/06/15 00:32:04;;;;;;;8.23;6.97;;;;;;;;;;4983387;28;20061;-71
2022/06/15 00:34:29;;;;;;;6.78;6.18;;;;;;;;;;4988229;28;20033;-70
2022/06/15 00:36:55;;;;;;;10.52;7.07;;;;;;;;;;4990278;28;20478;-71
2022/06/15 00:39:20;;;;;;;9.32;7.47;;;;;;;;;;4986514;28;20049;-71
2022/06/15 00:41:45;;;;;;;7.75;6.65;;;;;;;;;;4982414;28;20053;-72
2022/06/15 00:44:16;;;;;;;8.70;7.10;;;;;;;;;;4988711;28;20366;-72
2022/06/15 00:46:43;;;;;;;8.27;7.30;;;;;;;;;;4990277;28;20026;-71
2022/06/15 00:49:13;;;;;;;10.35;7.38;;;;;;;;;;4984471;28;20027;-70
2022/06/15 00:51:39;;;;;;;9.82;6.95;;;;;;;;;;4983399;28;20026;-70
2022/06/15 00:54:05;;;;;;;8.98;7.47;;;;;;;;;;4989957;28;20349;-70
2022/06/15 00:56:30;;;;;;;10.18;7.57;;;;;;;;;;4989698;28;20049;-71
2022/06/15 00:58:58;;;;;;;10.63;7.13;;;;;;;;;;4982458;28;20026;-70
2022/06/15 01:01:24;;;;;;;7.68;6.82;;;;;;;;;;4983988;28;20026;-71
2022/06/15 01:03:51;;;;;;;8.13;7.30;;;;;;;;;;4989674;28;20033;-72
2022/06/15 01:06:22;;;;;;;8.60;6.57;;;;;;;;;;4988095;28;20029;-72
2022/06/15 01:08:56;;;;;;;9.75;7.07;;;;;;;;;;4983961;28;20536;-71
2022/06/15 01:11:29;;;;;;;10.40;6.82;;;;;;;;;;4985533;28;20065;-71
2022/06/15 01:14:00;;;;;;;8.80;7.32;;;;;;;;;;4990165;28;20477;-68
2022/06/15 01:16:32;;;;;;;7.90;6.85;;;;;;;;;;4985936;28;20490;-72
2022/06/15 01:19:00;;;;;;;9.77;7.40;;;;;;;;;;4982634;28;20069;-73
2022/06/15 01:21:30;;;;;;;8.02;7.22;;;;;;;;;;4987392;28;20053;-69
2022/06/15 01:23:59;;;;;;;10.65;7.32;;;;;;;;;;4989704;28;20034;-69
2022/06/15 01:26:40;;;;;;;9.32;7.55;;;;;;;;;;4984853;28;20446;-70
2022/06/15 01:29:15;;;;;;;9.20;7.60;;;;;;;;;;4997237;28;20128;-70
2022/06/15 01:31:44;;;;;;;9.43;7.15;;;;;;;;;;4989118;28;20026;-71
2022/06/15 01:34:21;;;;;;;9.80;7.30;;;;;;;;;;4988808;28;20033;-70
2022/06/15 01:36:48;;;;;;;9.27;7.63;;;;;;;;;;4982723;28;20105;-71
2022/06/15 01:39:13;;;;;;;9.23;7.20;;;;;;;;;;4985743;28;20030;-71
2022/06/15 01:41:45;;;;;;;9.00;7.22;;;;;;;;;;4990050;28;20037;-71
2022/06/15 01:44:14;;;;;;;8.80;7.03;;;;;;;;;;4985923;28;20574;-71
2022/06/15 01:46:42;;;;;;;9.82;7.43;;;;;;;;;;4981067;28;20455;-70
2022/06/15 01:49:10;;;;;;;8.60;6.60;;;;;;;;;;4985174;28;20018;-70
2022/06/15 01:51:37;;;;;;;9.32;7.82;;;;;;;;;;4989602;28;20526;-70
2022/06/15 01:54:05;;;;;;;10.45;7.10;;;;;;;;;;4987948;28;20755;-70
2022/06/15 01:56:34;;;;;;;11.85;7.82;;;;;;;;;;4988195;28;20041;-70
2022/06/15 01:59:03;;;;;;;10.80;7.03;;;;;;;;;;4987804;28;20468;-70
2022/06/15 02:01:54;;;;;;;10.13;7.13;;;;;;;;;;4989790;28;20042;-70
2022/06/15 02:04:45;;;;;;;11.88;8.25;;;;;;;;;;4979023;28;20064;-70
2022/06/15 02:07:29;;;;;;;8.82;7.22;;;;;;;;;;4972567;28;20077;-70
2022/06/15 02:09:58;;;;;;;9.07;7.78;;;;;;;;;;4987842;28;20097;-70
2022/06/15 02:12:29;;;;;;;8.82;6.38;;;;;;;;;;4986760;28;20153;-71
2022/06/15 02:14:58;;;;;;;8.25;6.95;;;;;;;;;;4983440;28;20089;-72
2022/06/15 02:17:35;;;;;;;10.40;6.65;;;;;;;;;;4985409;28;20105;-69
2022/06/15 02:20:07;;;;;;;8.43;6.80;;;;;;;;;;4988109;28;20030;-68
2022/06/15 02:22:34;;;;;;;7.95;6.22;;;;;;;;;;4984240;28;20554;-73
2022/06/15 02:25:00;;;;;;;9.18;7.45;;;;;;;;;;4982139;28;20579;-75
2022/06/15 02:27:27;;;;;;;10.10;7.18;;;;;;;;;;4987322;28;20026;-73
2022/06/15 02:29:55;;;;;;;11.23;7.75;;;;;;;;;;4989226;28;20037;-74
2022/06/15 02:32:23;;;;;;;10.27;7.22;;;;;;;;;;4981999;28;20365;-74
2022/06/15 02:34:48;;;;;;;10.98;7.53;;;;;;;;;;4982634;28;20022;-75
2022/06/15 02:37:13;;;;;;;10.02;8.23;;;;;;;;;;4988765;28;20499;-75
2022/06/15 02:39:39;;;;;;;9.27;7.47;;;;;;;;;;4987920;28;20033;-75
2022/06/15 02:42:22;;;;;;;8.30;6.90;;;;;;;;;;4981214;28;20380;-76
2022/06/15 02:44:49;;;;;;;8.35;7.50;;;;;;;;;;4983808;28;20042;-75
2022/06/15 02:47:15;;;;;;;11.95;8.32;;;;;;;;;;4988079;28;20042;-75
2022/06/15 02:49:40;;;;;;;9.82;8.02;;;;;;;;;;4970316;28;20573;-75
2022/06/15 02:52:06;;;;;;;8.68;7.57;;;;;;;;;;4980251;28;20506;-75
2022/06/15 02:54:34;;;;;;;9.82;8.27;;;;;;;;;;4986076;28;20088;-73
2022/06/15 02:57:00;;;;;;;9.30;7.45;;;;;;;;;;4987935;28;20137;-74
2022/06/15 02:59:25;;;;;;;9.57;8.27;;;;;;;;;;4987009;28;20129;-74
2022/06/15 03:01:50;;;;;;;10.10;8.35;;;;;;;;;;4983295;28;20034;-74
2022/06/15 03:04:15;;;;;;;8.98;7.88;;;;;;;;;;4984943;28;20153;-74
2022/06/15 03:06:40;;;;;;;8.93;7.82;;;;;;;;;;4987760;28;20396;-73
2022/06/15 03:09:06;;;;;;;9.77;8.57;;;;;;;;;;4984997;28;20023;-74
2022/06/15 03:11:31;;;;;;;8.95;7.93;;;;;;;;;;4981570;28;20034;-74
2022/06/15 03:13:57;;;;;;;14.65;10.00;;;;;;;;;;4982964;28;20496;-69
2022/06/15 03:16:22;;;;;;;9.70;8.13;;;;;;;;;;4981693;28;20300;-62
2022/06/15 03:18:47;;;;;;;10.75;8.13;;;;;;;;;;4988318;28;20022;-63
2022/06/15 03:21:13;;;;;;;13.45;9.00;;;;;;;;;;4990686;28;20062;-63
2022/06/15 03:23:38;;;;;;;7.35;6.72;;;;;;;;;;4987120;28;20041;-63
2022/06/15 03:26:04;;;;;;;10.15;8.80;;;;;;;;;;4985035;28;20041;-64
2022/06/15 03:28:29;;;;;;;9.15;8.25;;;;;;;;;;4989493;28;20550;-62
2022/06/15 03:30:55;;;;;;;10.18;7.35;;;;;;;;;;4991190;28;20026;-65
2022/06/15 03:33:20;;;;;;;15.18;8.10;;;;;;;;;;4985868;28;20105;-65
2022/06/15 03:35:46;;;;;;;9.80;8.90;;;;;;;;;;4985056;28;20473;-64
2022/06/15 03:38:11;;;;;;;8.40;7.57;;;;;;;;;;4991491;28;20468;-65
2022/06/15 03:40:38;;;;;;;9.27;7.80;;;;;;;;;;4991799;28;20068;-65
2022/06/15 03:43:04;;;;;;;10.68;8.07;;;;;;;;;;4983018;28;20764;-65
2022/06/15 03:45:30;;;;;;;10.02;7.40;;;;;;;;;;4983683;28;20442;-67
2022/06/15 03:47:55;;;;;;;9.57;7.27;;;;;;;;;;4988322;28;20026;-65
2022/06/15 03:50:21;;;;;;;10.43;7.95;;;;;;;;;;4989294;28;20528;-65
2022/06/15 03:52:46;;;;;;;8.65;7.38;;;;;;;;;;4984115;28;20058;-65
2022/06/15 03:55:12;;;;;;;8.05;7.32;;;;;;;;;;4981649;28;20041;-66
2022/06/15 03:57:37;;;;;;;10.77;7.95;;;;;;;;;;4990364;28;20026;-65
2022/06/15 04:00:03;;;;;;;8.05;7.20;;;;;;;;;;4989856;28;20447;-65
2022/06/15 04:02:29;;;;;;;10.48;7.00;;;;;;;;;;4984526;28;20035;-65
2022/06/15 04:04:54;;;;;;;9.05;8.05;;;;;;;;;;4985419;28;20085;-65
2022/06/15 04:10:03;;;;;;;8.07;7.28;;;;;;;;;;4987881;28;20057;-65
2022/06/15 04:12:28;;;;;;;10.10;7.40;;;;;;;;;;4985328;28;20145;-65
2022/06/15 04:14:53;;;;;;;9.95;7.97;;;;;;;;;;4976701;28;20022;-65
2022/06/15 04:17:19;;;;;;;7.88;6.43;;;;;;;;;;4990735;28;20032;-65
2022/06/15 04:20:31;;;;;;;9.60;7.45;;;;;;;;;;4986973;28;20109;-65
2022/06/15 04:22:29;;;;;;;9.75;7.50;;;;;;;;;;4984606;28;20057;-66
2022/06/15 04:24:54;;;;;;;10.23;7.10;;;;;;;;;;4988652;28;20473;-66
2022/06/15 04:27:20;;;;;;;11.85;6.50;;;;;;;;;;4991409;28;20376;-65
2022/06/15 04:29:45;;;;;;;12.18;7.00;;;;;;;;;;4985714;28;20934;-64
2022/06/15 04:32:10;;;;;;;9.40;6.88;;;;;;;;;;4983121;28;20471;-65
2022/06/15 04:34:36;;;;;;;7.40;6.18;;;;;;;;;;4987918;28;20376;-65
2022/06/15 04:37:03;;;;;;;7.07;6.25;;;;;;;;;;4988952;28;20483;-65
2022/06/15 04:39:29;;;;;;;7.80;6.63;;;;;;;;;;4984995;28;20037;-65
2022/06/15 04:41:54;;;;;;;7.72;6.28;;;;;;;;;;4983504;28;20034;-65
2022/06/15 04:44:19;;;;;;;8.75;7.85;;;;;;;;;;4987786;28;20058;-65
2022/06/15 04:46:44;;;;;;;9.32;7.25;;;;;;;;;;4990073;28;20030;-65
2022/06/15 04:49:10;;;;;;;10.38;7.03;;;;;;;;;;4983363;28;20503;-65
2022/06/15 04:51:38;;;;;;;8.10;5.85;;;;;;;;;;4983975;28;20030;-65
2022/06/15 04:54:09;;;;;;;7.55;6.90;;;;;;;;;;4989374;28;20027;-65
2022/06/15 04:56:35;;;;;;;11.15;6.72;;;;;;;;;;4989291;28;20030;-66
2022/06/15 04:59:00;;;;;;;7.47;6.78;;;;;;;;;;4982021;28;20586;-65
2022/06/15 05:01:25;;;;;;;9.02;7.15;;;;;;;;;;4984597;28;20345;-65
2022/06/15 05:03:50;;;;;;;8.10;6.90;;;;;;;;;;4983122;28;20357;-65
2022/06/15 05:06:22;;;;;;;10.05;6.68;;;;;;;;;;4984617;28;20324;-66
2022/06/15 05:08:47;;;;;;;7.43;6.07;;;;;;;;;;4986602;28;20117;-65
2022/06/15 05:11:12;;;;;;;9.70;7.13;;;;;;;;;;4982053;28;20088;-65
2022/06/15 05:13:37;;;;;;;10.15;6.45;;;;;;;;;;4982121;28;20019;-65
2022/06/15 05:16:03;;;;;;;11.45;7.38;;;;;;;;;;4985868;28;20504;-65
2022/06/15 05:18:28;;;;;;;9.05;7.30;;;;;;;;;;4988846;28;20027;-66
2022/06/15 05:20:54;;;;;;;12.85;7.53;;;;;;;;;;4987464;28;20480;-64
2022/06/15 05:23:19;;;;;;;8.40;7.25;;;;;;;;;;4982828;28;20400;-65
2022/06/15 05:25:44;;;;;;;7.88;7.13;;;;;;;;;;4983235;28;20029;-64
2022/06/15 05:28:12;;;;;;;9.93;8.00;;;;;;;;;;4984135;28;20022;-65
2022/06/15 05:30:37;;;;;;;8.20;6.50;;;;;;;;;;4987199;28;20037;-65
2022/06/15 05:33:03;;;;;;;7.70;6.45;;;;;;;;;;4982020;28;20026;-65
2022/06/15 05:35:28;;;;;;;8.93;7.07;;;;;;;;;;4984685;28;20030;-65
2022/06/15 05:37:53;;;;;;;11.25;7.97;;;;;;;;;;4981995;28;20033;-65
2022/06/15 05:40:18;;;;;;;8.60;6.93;;;;;;;;;;4983402;28;20026;-62
2022/06/15 05:42:44;;;;;;;8.20;7.35;;;;;;;;;;4981800;28;20062;-65
2022/06/15 05:45:09;;;;;;;8.07;6.57;;;;;;;;;;4985604;28;20026;-65
2022/06/15 05:47:34;;;;;;;8.98;7.50;;;;;;;;;;4983382;28;20471;-65
2022/06/15 05:50:00;;;;;;;10.65;7.00;;;;;;;;;;4982542;28;20378;-65
2022/06/15 05:52:26;;;;;;;8.73;7.38;;;;;;;;;;4981643;28;20053;-65
2022/06/15 05:54:51;;;;;;;9.88;6.60;;;;;;;;;;4987805;28;20022;-64
2022/06/15 05:57:18;;;;;;;7.07;6.28;;;;;;;;;;4983527;28;20080;-63
2022/06/15 05:59:43;;;;;;;7.65;6.90;;;;;;;;;;4983021;28;20486;-64
2022/06/15 06:02:10;;;;;;;7.30;6.32;;;;;;;;;;4982511;28;20027;-63
2022/06/15 06:04:35;;;;;;;6.57;6.00;;;;;;;;;;4988771;28;20066;-63
2022/06/15 06:07:00;;;;;;;7.35;6.65;;;;;;;;;;4984374;28;20060;-64
2022/06/15 06:09:27;;;;;;;8.43;7.13;;;;;;;;;;4982814;28;20063;-64
2022/06/15 06:11:53;;;;;;;8.27;6.57;;;;;;;;;;4984231;28;20212;-63
2022/06/15 06:14:18;;;;;;;8.27;6.72;;;;;;;;;;4988075;28;20025;-63
2022/06/15 06:16:43;;;;;;;9.40;7.15;;;;;;;;;;4987686;28;20022;-63
2022/06/15 06:19:08;;;;;;;8.45;7.65;;;;;;;;;;4981428;28;20578;-63
2022/06/15 06:21:34;;;;;;;11.65;7.53;;;;;;;;;;4983955;28;20084;-64
2022/06/15 06:23:59;;;;;;;10.48;6.70;;;;;;;;;;4989417;28;20026;-63
2022/06/15 06:26:28;;;;;;;10.43;6.82;;;;;;;;;;4987964;28;20553;-63
2022/06/15 06:28:54;;;;;;;7.63;6.32;;;;;;;;;;4982190;28;20145;-64
2022/06/15 06:31:20;;;;;;;8.68;7.07;;;;;;;;;;4982838;28;20450;-63
2022/06/15 06:33:46;;;;;;;11.10;6.70;;;;;;;;;;4988127;28;20464;-64
2022/06/15 06:36:15;;;;;;;8.38;6.72;;;;;;;;;;4985563;28;20033;-63
2022/06/15 06:38:40;;;;;;;7.97;7.03;;;;;;;;;;4982556;28;20636;-64
2022/06/15 06:41:05;;;;;;;7.80;6.47;;;;;;;;;;4983028;28;20362;-64
2022/06/15 06:43:31;;;;;;;7.35;6.22;;;;;;;;;;4985009;28;20128;-63
2022/06/15 06:45:56;;;;;;;11.32;6.68;;;;;;;;;;4982925;28;20033;-64
2022/06/15 06:48:21;;;;;;;14.27;7.63;;;;;;;;;;4980546;28;20034;-65
2022/06/15 06:50:47;;;;;;;15.73;8.10;;;;;;;;;;4980342;28;20060;-66
2022/06/15 06:53:13;;;;;;;10.93;7.43;;;;;;;;;;4983898;28;20041;-67
2022/06/15 06:55:38;;;;;;;9.00;7.07;;;;;;;;;;4985740;28;20145;-67
2022/06/15 06:58:04;;;;;;;7.57;6.78;;;;;;;;;;4984339;28;20029;-67
2022/06/15 07:00:30;;;;;;;17.13;7.85;;;;;;;;;;4986475;28;20073;-69
2022/06/15 07:02:57;;;;;;;10.35;7.43;;;;;;;;;;4984942;28;20038;-67
2022/06/15 07:05:22;;;;;;;7.30;6.55;;;;;;;;;;4984036;28;20109;-66
2022/06/15 07:07:47;;;;;;;11.68;8.48;;;;;;;;;;4983980;28;20061;-67
2022/06/15 07:10:14;;;;;;;8.20;6.70;;;;;;;;;;4988154;28;20045;-67
2022/06/15 07:12:42;;;;;;;13.65;7.28;;;;;;;;;;4983728;28;20033;-67
2022/06/15 07:15:08;;;;;;;8.77;7.38;;;;;;;;;;4983881;28;20061;-68
2022/06/15 07:17:34;;;;;;;16.48;7.05;;;;;;;;;;4984092;28;20080;-67
2022/06/15 07:19:59;;;;;;;7.63;6.93;;;;;;;;;;4990509;28;20026;-68
2022/06/15 07:22:24;;;;;;;11.60;6.88;;;;;;;;;;4983574;28;20125;-68
2022/06/15 07:24:49;;;;;;;9.80;6.82;;;;;;;;;;4983457;28;20017;-67
2022/06/15 07:27:15;;;;;;;11.05;6.93;;;;;;;;;;4986659;28;20025;-68
2022/06/15 07:29:42;;;;;;;14.13;7.85;;;;;;;;;;4991159;28;20030;-67
2022/06/15 07:32:07;;;;;;;12.68;6.80;;;;;;;;;;4985865;28;20568;-68
2022/06/15 07:34:33;;;;;;;10.95;7.10;;;;;;;;;;4983647;28;20499;-68
2022/06/15 07:36:58;;;;;;;8.80;5.95;;;;;;;;;;4986547;28;20034;-68
2022/06/15 07:39:27;;;;;;;8.02;5.82;;;;;;;;;;4990527;28;20127;-68
2022/06/15 07:41:53;;;;;;;9.57;6.55;;;;;;;;;;4987218;28;20046;-68
2022/06/15 07:44:19;;;;;;;9.15;6.90;;;;;;;;;;4981845;28;20065;-66
2022/06/15 07:46:44;;;;;;;6.15;5.57;;;;;;;;;;4986789;28;20062;-68
2022/06/15 07:51:55;;;;;;;9.23;5.80;;;;;;;;;;4984354;28;20518;-68
2022/06/15 07:54:21;;;;;;;9.60;6.45;;;;;;;;;;4982889;28;20145;-67
2022/06/15 07:56:47;;;;;;;7.28;6.47;;;;;;;;;;4989496;28;20121;-67
2022/06/15 07:59:13;;;;;;;6.68;6.05;;;;;;;;;;4983423;28;20221;-67
2022/06/15 08:01:38;;;;;;;7.18;5.60;;;;;;;;;;4983036;28;20030;-67
2022/06/15 08:04:04;;;;;;;6.32;5.65;;;;;;;;;;4983606;28;20030;-68
2022/06/15 08:06:30;;;;;;;7.15;6.07;;;;;;;;;;4989787;28;20389;-67
2022/06/15 08:08:56;;;;;;;6.80;5.35;;;;;;;;;;4987351;28;20109;-68
2022/06/15 08:11:21;;;;;;;9.20;5.15;;;;;;;;;;4984429;28;20088;-69
2022/06/15 08:13:46;;;;;;;8.10;5.55;;;;;;;;;;4986111;28;20026;-67
2022/06/15 08:16:13;;;;;;;11.27;5.43;;;;;;;;;;4991803;28;20033;-68
2022/06/15 08:18:48;;;;;;;5.53;5.00;;;;;;;;;;4990599;28;20035;-68
2022/06/15 08:21:18;;;;;;;7.65;4.38;;;;;;;;;;4982366;28;20120;-68
2022/06/15 08:23:45;;;;;;;4.70;4.18;;;;;;;;;;4985407;28;20518;-68
2022/06/15 08:26:13;;;;;;;8.27;4.05;;;;;;;;;;4991488;28;20030;-68
2022/06/15 08:28:40;;;;;;;5.72;4.45;;;;;;;;;;4987960;28;20053;-68
2022/06/15 08:31:05;;;;;;;5.82;5.13;;;;;;;;;;4982433;28;20412;-68
2022/06/15 08:33:30;;;;;;;4.95;4.07;;;;;;;;;;4983128;28;20111;-68
2022/06/15 08:35:56;;;;;;;7.28;4.07;;;;;;;;;;4989742;28;20085;-68
2022/06/15 08:38:22;;;;;;;5.88;4.35;;;;;;;;;;4974322;28;20065;-68
2022/06/15 08:40:52;;;;;;;6.07;3.95;;;;;;;;;;4981596;28;20120;-69
2022/06/15 08:43:29;;;;;;;7.10;4.38;;;;;;;;;;4982230;28;20152;-68
2022/06/15 08:45:57;;;;;;;4.43;3.92;;;;;;;;;;4986949;28;20072;-68
2022/06/15 08:48:41;;;;;;;10.88;6.47;;;;;;;;;;4983564;28;20533;-68
2022/06/15 08:51:24;;;;;;;4.45;4.05;;;;;;;;;;4981347;28;20054;-68
2022/06/15 08:54:02;;;;;;;6.85;4.40;;;;;;;;;;4981564;28;20053;-68
2022/06/15 08:56:34;;;;;;;4.20;3.90;;;;;;;;;;4985285;28;20499;-69
2022/06/15 08:59:05;;;;;;;6.47;5.35;;;;;;;;;;4980742;28;20029;-69
2022/06/15 09:01:30;;;;;;;6.18;3.85;;;;;;;;;;4981389;28;20030;-69
2022/06/15 09:04:01;;;;;;;4.50;4.15;;;;;;;;;;4982021;28;20027;-70
2022/06/15 09:06:38;;;;;;;4.43;3.97;;;;;;;;;;4983079;28;20490;-71
2022/06/15 09:09:22;;;;;;;7.45;4.60;;;;;;;;;;4983702;28;20026;-70
2022/06/15 09:15:10;;;;;;;10.25;4.00;;;;;;;;;;4984217;28;20469;-70
2022/06/15 09:17:37;;;;;;;6.05;4.20;;;;;;;;;;4952042;28;20510;-69
2022/06/15 09:20:04;;;;;;;5.10;4.22;;;;;;;;;;4988479;28;20539;-69
2022/06/15 09:22:35;;;;;;;4.28;3.92;;;;;;;;;;4987510;28;20037;-69
2022/06/15 09:25:04;;;;;;;5.03;4.60;;;;;;;;;;4980758;28;20591;-70
2022/06/15 09:27:29;;;;;;;5.32;4.15;;;;;;;;;;4983329;28;20125;-69
2022/06/15 09:30:03;;;;;;;7.93;4.30;;;;;;;;;;4984984;28;20519;-69
2022/06/15 09:32:34;;;;;;;6.15;4.40;;;;;;;;;;4984221;28;20045;-69
2022/06/15 09:35:04;;;;;;;4.43;3.90;;;;;;;;;;4984748;28;20022;-69
2022/06/15 09:37:31;;;;;;;5.25;4.47;;;;;;;;;;4985772;28;20069;-70
2022/06/15 09:39:58;;;;;;;5.43;4.50;;;;;;;;;;4986940;28;20053;-69
2022/06/15 09:42:26;;;;;;;6.28;4.70;;;;;;;;;;4984819;28;20026;-69
2022/06/15 09:45:04;;;;;;;4.93;4.32;;;;;;;;;;4983213;28;20049;-69
2022/06/15 09:47:48;;;;;;;7.70;5.15;;;;;;;;;;4981285;28;20028;-70
2022/06/15 09:50:22;;;;;;;6.20;4.50;;;;;;;;;;4982589;28;20091;-69
2022/06/15 09:52:48;;;;;;;5.22;4.70;;;;;;;;;;4983054;28;20120;-70
2022/06/15 09:55:14;;;;;;;4.53;4.10;;;;;;;;;;4981807;28;20085;-69
2022/06/15 09:57:39;;;;;;;5.20;4.43;;;;;;;;;;4981165;28;20441;-70
2022/06/15 10:00:06;;;;;;;5.38;4.88;;;;;;;;;;4981091;28;20025;-70
2022/06/15 10:02:33;;;;;;;3.85;3.55;;;;;;;;;;4983536;28;20550;-69
2022/06/15 10:05:00;;;;;;;5.55;4.40;;;;;;;;;;4986003;28;20480;-69
2022/06/15 10:07:26;;;;;;;5.57;4.30;;;;;;;;;;4981099;28;20030;-69
2022/06/15 10:09:52;;;;;;;6.85;4.20;;;;;;;;;;4981047;28;20029;-69
2022/06/15 10:15:14;;;;;;;5.00;4.50;;;;;;;;;;4987811;28;20033;-67
2022/06/15 10:17:44;;;;;;;5.45;4.95;;;;;;;;;;4980229;28;20115;-68
2022/06/15 10:20:32;;;;;;;5.45;4.43;;;;;;;;;;4979619;28;20469;-70
2022/06/15 10:22:59;;;;;;;4.68;4.32;;;;;;;;;;4972218;28;20396;-68
2022/06/15 10:25:26;;;;;;;4.43;4.10;;;;;;;;;;4986680;28;20041;-70
2022/06/15 10:28:03;;;;;;;5.63;4.50;;;;;;;;;;4994315;28;20485;-70
2022/06/15 10:30:29;;;;;;;7.03;4.55;;;;;;;;;;4980004;28;21015;-69
2022/06/15 10:32:57;;;;;;;4.95;4.55;;;;;;;;;;4987278;28;20018;-69
2022/06/15 10:35:23;;;;;;;6.03;4.40;;;;;;;;;;4984014;28;20157;-69
2022/06/15 10:37:49;;;;;;;5.45;5.05;;;;;;;;;;4981008;28;20027;-69
2022/06/15 10:40:18;;;;;;;4.82;4.43;;;;;;;;;;4980192;28;20035;-69
2022/06/15 10:42:46;;;;;;;5.03;4.63;;;;;;;;;;4984706;28;20054;-70
2022/06/15 10:45:23;;;;;;;4.82;4.43;;;;;;;;;;4984437;28;20027;-70
2022/06/15 10:48:01;;;;;;;4.15;3.80;;;;;;;;;;4981086;28;20516;-68
2022/06/15 10:50:43;;;;;;;4.75;3.95;;;;;;;;;;4980706;28;20022;-72
2022/06/15 10:53:23;;;;;;;6.78;4.03;;;;;;;;;;4984404;28;20034;-71
2022/06/15 11:04:09;;;;;;;7.43;4.95;;;;;;;;;;4983430;28;20037;-71
2022/06/15 11:06:46;;;;;;;4.43;3.80;;;;;;;;;;4979807;28;20490;-70
2022/06/15 11:09:26;;;;;;;4.40;4.00;;;;;;;;;;4982264;28;20457;-70
2022/06/15 11:11:52;;;;;;;5.93;4.15;;;;;;;;;;4980377;28;20472;-70
2022/06/15 11:14:26;;;;;;;6.40;5.25;;;;;;;;;;4979960;28;20034;-75
2022/06/15 11:19:53;;;;;;;4.93;4.32;;;;;;;;;;4986535;28;20133;-70
2022/06/15 11:22:19;;;;;;;4.85;4.40;;;;;;;;;;4979731;28;20037;-69
2022/06/15 11:24:53;;;;;;;5.88;4.97;;;;;;;;;;4979978;28;20118;-70
2022/06/15 11:27:24;;;;;;;5.50;4.43;;;;;;;;;;4984538;28;20018;-69
2022/06/15 11:29:55;;;;;;;5.22;4.85;;;;;;;;;;4986251;28;20377;-69
2022/06/15 11:32:39;;;;;;;8.20;4.40;;;;;;;;;;4979329;28;20041;-68
2022/06/15 11:35:13;;;;;;;4.80;4.35;;;;;;;;;;4979895;28;20018;-69
2022/06/15 11:37:43;;;;;;;5.00;4.57;;;;;;;;;;4985245;28;20028;-70
2022/06/15 11:40:14;;;;;;;5.13;4.53;;;;;;;;;;4989306;28;20032;-69
2022/06/15 11:42:40;;;;;;;4.70;4.32;;;;;;;;;;4982536;28;20570;-69
2022/06/15 11:45:12;;;;;;;6.28;4.30;;;;;;;;;;4982931;28;20030;-70
2022/06/15 11:47:41;;;;;;;5.13;4.65;;;;;;;;;;4989346;28;20108;-70
2022/06/15 11:50:20;;;;;;;5.60;5.15;;;;;;;;;;4989925;28;20122;-70
2022/06/15 11:52:48;;;;;;;4.80;4.05;;;;;;;;;;4982660;28;20131;-69
2022/06/15 11:55:42;;;;;;;5.03;4.20;;;;;;;;;;4983262;28;20377;-69
2022/06/15 11:58:09;;;;;;;4.68;4.38;;;;;;;;;;4977010;28;20034;-69
2022/06/15 12:00:37;;;;;;;4.63;4.22;;;;;;;;;;4986246;28;20022;-70
2022/06/15 12:03:21;;;;;;;6.28;4.97;;;;;;;;;;4983472;28;20597;-69
2022/06/15 12:05:46;;;;;;;4.90;4.47;;;;;;;;;;4987927;28;20133;-69
2022/06/15 12:08:12;;;;;;;5.55;4.63;;;;;;;;;;4990787;28;20662;-69
2022/06/15 12:10:37;;;;;;;4.63;4.32;;;;;;;;;;4983740;28;20022;-69
2022/06/15 12:13:15;;;;;;;7.82;5.18;;;;;;;;;;4981611;28;20030;-69
2022/06/15 12:15:45;;;;;;;6.88;3.97;;;;;;;;;;4982871;28;20074;-68
2022/06/15 12:18:29;;;;;;;5.13;4.57;;;;;;;;;;4988718;28;20027;-68
2022/06/15 12:20:55;;;;;;;5.10;4.60;;;;;;;;;;4983557;28;20026;-69
2022/06/15 12:23:39;;;;;;;4.82;4.43;;;;;;;;;;4982250;28;20033;-71
2022/06/15 12:26:12;;;;;;;4.43;4.10;;;;;;;;;;4982809;28;20036;-69
2022/06/15 12:28:38;;;;;;;5.47;4.57;;;;;;;;;;4986246;28;20125;-70
2022/06/15 12:31:09;;;;;;;5.30;4.25;;;;;;;;;;4983953;28;20495;-69
2022/06/15 12:33:40;;;;;;;5.43;4.93;;;;;;;;;;4983274;28;20030;-70
2022/06/15 12:36:15;;;;;;;8.57;4.28;;;;;;;;;;4984753;28;20040;-70
2022/06/15 12:38:40;;;;;;;5.97;4.57;;;;;;;;;;4985005;28;20062;-70
2022/06/15 12:41:07;;;;;;;6.00;4.03;;;;;;;;;;4982602;28;20022;-70
2022/06/15 12:43:40;;;;;;;7.13;4.50;;;;;;;;;;4987430;28;20639;-69
2022/06/15 12:46:10;;;;;;;4.75;4.32;;;;;;;;;;4988698;28;20119;-69
2022/06/15 12:48:42;;;;;;;7.18;4.85;;;;;;;;;;4986062;28;20025;-69
2022/06/15 12:51:13;;;;;;;4.88;4.40;;;;;;;;;;4982823;28;20036;-66
2022/06/15 12:54:14;;;;;;;4.38;4.07;;;;;;;;;;4988897;28;20509;-69
2022/06/15 12:56:46;;;;;;;7.05;6.40;;;;;;;;;;4966443;28;20560;-69
2022/06/15 12:59:23;;;;;;;5.35;4.53;;;;;;;;;;4962222;28;20577;-69
2022/06/15 13:01:57;;;;;;;4.68;4.28;;;;;;;;;;4964195;28;20054;-68
2022/06/15 13:04:31;;;;;;;4.45;4.20;;;;;;;;;;4966892;28;20026;-68
2022/06/15 13:07:23;;;;;;;5.43;4.30;;;;;;;;;;4946047;28;20594;-69
2022/06/15 13:10:07;;;;;;;5.38;4.22;;;;;;;;;;4956336;28;20093;-67
2022/06/15 13:12:44;;;;;;;5.60;4.85;;;;;;;;;;4966470;28;20041;-70
2022/06/15 13:15:24;;;;;;;5.10;4.60;;;;;;;;;;4965033;28;20026;-69
2022/06/15 13:18:04;;;;;;;5.80;4.43;;;;;;;;;;4959048;28;20448;-70
2022/06/15 13:20:30;;;;;;;4.43;4.18;;;;;;;;;;4964277;28;20057;-68
2022/06/15 13:22:55;;;;;;;4.68;4.30;;;;;;;;;;4965482;28;20503;-70
2022/06/15 13:25:21;;;;;;;5.20;4.70;;;;;;;;;;4962194;28;20034;-70
2022/06/15 13:28:08;;;;;;;5.43;4.93;;;;;;;;;;4959401;28;20035;-71
2022/06/15 13:30:48;;;;;;;6.93;4.90;;;;;;;;;;4975623;28;20038;-66
2022/06/15 13:33:15;;;;;;;6.80;4.43;;;;;;;;;;4988455;28;20571;-67
2022/06/15 13:35:42;;;;;;;5.40;4.75;;;;;;;;;;4982539;28;20435;-66
2022/06/15 13:38:14;;;;;;;5.35;4.63;;;;;;;;;;4997006;28;20354;-66
2022/06/15 13:41:05;;;;;;;6.18;4.55;;;;;;;;;;4987592;28;20048;-66
2022/06/15 13:43:31;;;;;;;5.15;4.25;;;;;;;;;;4982296;28;20058;-67
2022/06/15 13:45:58;;;;;;;4.88;4.38;;;;;;;;;;4981410;28;20087;-67
2022/06/15 13:48:28;;;;;;;4.30;3.92;;;;;;;;;;4984160;28;20030;-67
2022/06/15 13:51:01;;;;;;;5.15;4.65;;;;;;;;;;4986616;28;20026;-66
2022/06/15 13:53:34;;;;;;;5.10;4.70;;;;;;;;;;4983958;28;20026;-67
2022/06/15 13:56:03;;;;;;;5.05;4.57;;;;;;;;;;4979905;28;20026;-67
2022/06/15 13:58:47;;;;;;;5.20;4.80;;;;;;;;;;4986997;28;20041;-66
2022/06/15 14:01:41;;;;;;;6.80;4.40;;;;;;;;;;4987204;28;20014;-67
2022/06/15 14:04:18;;;;;;;4.65;4.25;;;;;;;;;;4980946;28;20125;-66
2022/06/15 14:07:02;;;;;;;4.90;4.30;;;;;;;;;;4983059;28;20034;-66
2022/06/15 14:09:33;;;;;;;4.95;4.50;;;;;;;;;;4986267;28;20026;-67
2022/06/15 14:12:08;;;;;;;4.60;4.20;;;;;;;;;;4986438;28;20113;-66
2022/06/15 14:14:53;;;;;;;4.93;4.53;;;;;;;;;;4982010;28;20602;-66
2022/06/15 14:17:19;;;;;;;4.60;4.25;;;;;;;;;;4986496;28;20038;-66
2022/06/15 14:19:50;;;;;;;6.15;4.15;;;;;;;;;;4987469;28;20025;-66
2022/06/15 14:22:18;;;;;;;5.30;4.45;;;;;;;;;;4982395;28;20033;-66
2022/06/15 14:24:44;;;;;;;5.55;5.15;;;;;;;;;;4980569;28;20228;-68
2022/06/15 14:27:21;;;;;;;5.72;5.07;;;;;;;;;;4988518;28;20022;-68
2022/06/15 14:29:47;;;;;;;8.25;5.40;;;;;;;;;;4989585;28;20455;-74
2022/06/15 14:32:24;;;;;;;5.28;4.78;;;;;;;;;;4981457;28;20065;-66
2022/06/15 14:34:49;;;;;;;5.20;4.75;;;;;;;;;;4982393;28;20069;-68
2022/06/15 14:37:18;;;;;;;5.07;4.75;;;;;;;;;;4989438;28;20057;-70
2022/06/15 14:39:45;;;;;;;6.22;5.68;;;;;;;;;;4985700;28;20344;-68
2022/06/15 14:42:20;;;;;;;5.43;4.88;;;;;;;;;;4981467;28;20481;-69
2022/06/15 14:44:45;;;;;;;;;;;;;;;;;;4986842;28;20042;-67
2022/06/15 14:47:12;;;;;;;5.75;5.07;;;;;;;;;;4988166;28;19916;-70
2022/06/15 14:49:40;;;;;;;5.53;4.53;;;;;;;;;;4983421;28;20026;-68
2022/06/15 14:52:10;;;;;;;8.35;5.20;;;;;;;;;;4982182;28;20030;-68
2022/06/15 14:54:36;;;;;;;5.55;5.03;;;;;;;;;;4985573;28;20026;-68
2022/06/15 14:57:01;;;;;;;5.72;5.32;;;;;;;;;;4988374;28;20461;-69
2022/06/15 14:59:29;;;;;;;5.65;5.20;;;;;;;;;;4965968;28;20030;-68
2022/06/15 15:02:06;;;;;;;7.65;4.97;;;;;;;;;;4981561;28;20026;-69
2022/06/15 15:04:32;;;;;;;6.45;5.85;;;;;;;;;;4987373;28;20156;-69
2022/06/15 15:07:00;;;;;;;10.43;9.48;;;;;;;;;;4988447;28;20039;-69
2022/06/15 15:09:27;;;;;;;6.70;6.10;;;;;;;;;;4981986;28;20034;-68
2022/06/15 15:11:53;;;;;;;6.47;5.57;;;;;;;;;;4983584;28;20108;-68
2022/06/15 15:14:21;;;;;;;5.30;5.00;;;;;;;;;;4989077;28;20030;-68